createdAt,value
2018-07-08T00:03:32.228Z,85.10
2018-07-08T00:08:28.120Z,85.80
2018-07-08T00:10:59.608Z,85.90
2018-07-08T00:15:55.502Z,87.10
2018-07-08T00:18:24.093Z,87.50
2018-07-08T00:20:53.108Z,88.30
2018-07-08T00:25:49.974Z,87.30
2018-07-08T00:30:46.137Z,86.00
2018-07-08T00:33:14.123Z,85.40
2018-07-08T00:35:42.063Z,84.40
2018-07-08T00:43:05.870Z,84.80
2018-07-08T00:45:33.824Z,84.70
2018-07-08T00:50:29.657Z,85.50
2018-07-08T00:52:57.644Z,85.00
2018-07-08T00:55:25.555Z,83.00
2018-07-08T00:57:53.548Z,83.80
2018-07-08T01:00:30.498Z,92.90
2018-07-08T01:02:58.886Z,83.20
2018-07-08T01:05:27.057Z,93.10
2018-07-08T01:07:54.962Z,85.50
2018-07-08T01:15:18.787Z,85.10
2018-07-08T01:17:46.705Z,85.00
2018-07-08T01:20:14.618Z,84.60
2018-07-08T01:22:42.562Z,84.50
2018-07-08T01:27:42.340Z,85.00
2018-07-08T01:30:11.746Z,84.60
2018-07-08T01:32:39.768Z,84.40
2018-07-08T01:37:35.658Z,83.50
2018-07-08T01:40:04.195Z,83.50
2018-07-08T01:42:32.177Z,92.00
2018-07-08T01:45:00.574Z,82.90
2018-07-08T01:47:28.550Z,82.70
2018-07-08T01:49:56.476Z,83.30
2018-07-08T01:52:25.421Z,83.70
2018-07-08T01:54:54.125Z,92.70
2018-07-08T01:59:51.345Z,84.70
2018-07-08T02:02:19.877Z,84.90
2018-07-08T02:07:16.627Z,84.30
2018-07-08T02:12:12.863Z,86.10
2018-07-08T02:14:40.814Z,86.20
2018-07-08T02:17:08.746Z,86.50
2018-07-08T02:19:36.823Z,86.70
2018-07-08T02:22:04.766Z,86.40
2018-07-08T02:24:32.741Z,85.70
2018-07-08T02:27:00.701Z,85.50
2018-07-08T02:29:28.747Z,86.10
2018-07-08T02:31:56.671Z,86.70
2018-07-08T02:34:25.247Z,87.30
2018-07-08T02:36:53.323Z,87.30
2018-07-08T02:39:22.028Z,87.40
2018-07-08T02:41:50.212Z,88.20
2018-07-08T02:44:18.235Z,94.00
2018-07-08T02:46:46.177Z,87.30
2018-07-08T02:54:10.032Z,86.80
2018-07-08T02:56:37.988Z,93.70
2018-07-08T02:59:05.927Z,86.00
2018-07-08T03:01:33.903Z,85.90
2018-07-08T03:04:01.825Z,85.80
2018-07-08T03:06:29.773Z,86.10
2018-07-08T03:08:57.701Z,86.00
2018-07-08T03:11:25.614Z,85.80
2018-07-08T03:13:53.590Z,86.20
2018-07-08T03:16:21.536Z,93.30
2018-07-08T03:18:49.469Z,93.30
2018-07-08T03:21:17.388Z,94.20
2018-07-08T03:23:45.407Z,86.60
2018-07-08T03:26:13.341Z,86.70
2018-07-08T03:31:09.199Z,86.00
2018-07-08T03:33:37.133Z,86.10
2018-07-08T03:36:05.159Z,86.00
2018-07-08T03:38:33.089Z,94.20
2018-07-08T03:43:28.934Z,85.80
2018-07-08T03:48:24.812Z,84.30
2018-07-08T03:50:52.800Z,85.10
2018-07-08T03:53:20.762Z,84.80
2018-07-08T03:55:48.715Z,84.70
2018-07-08T03:58:16.652Z,84.30
2018-07-08T04:00:44.636Z,84.30
2018-07-08T04:03:12.565Z,84.10
2018-07-08T04:10:36.367Z,84.40
2018-07-08T04:15:32.240Z,84.90
2018-07-08T04:18:07.535Z,93.30
2018-07-08T04:23:04.474Z,86.10
2018-07-08T04:25:33.182Z,86.20
2018-07-08T04:30:29.915Z,86.10
2018-07-08T04:35:26.034Z,85.20
2018-07-08T04:37:54.002Z,85.00
2018-07-08T04:40:21.937Z,84.00
2018-07-08T04:42:49.889Z,85.20
2018-07-08T04:55:09.836Z,85.30
2018-07-08T05:02:33.686Z,85.70
2018-07-08T05:05:01.644Z,85.20
2018-07-08T05:07:29.559Z,93.60
2018-07-08T05:09:57.633Z,85.30
2018-07-08T05:14:53.844Z,84.50
2018-07-08T05:17:21.757Z,83.50
2018-07-08T05:19:49.810Z,83.50
2018-07-08T05:24:45.678Z,82.50
2018-07-08T05:27:13.672Z,82.50
2018-07-08T05:29:41.611Z,82.20
2018-07-08T05:32:09.525Z,82.20
2018-07-08T05:34:37.514Z,82.00
2018-07-08T05:39:33.962Z,81.70
2018-07-08T05:44:29.842Z,81.20
2018-07-08T05:46:57.803Z,90.70
2018-07-08T05:49:25.735Z,80.30
2018-07-08T05:56:49.537Z,83.00
2018-07-08T06:04:13.395Z,83.80
2018-07-08T06:06:41.318Z,90.70
2018-07-08T06:09:09.241Z,77.50
2018-07-08T06:11:37.282Z,77.10
2018-07-08T06:14:05.312Z,88.60
2018-07-08T06:19:01.247Z,77.20
2018-07-08T06:23:57.090Z,75.70
2018-07-08T06:28:53.000Z,75.30
2018-07-08T06:31:20.937Z,87.30
2018-07-08T06:33:48.903Z,75.90
2018-07-08T06:36:18.915Z,75.10
2018-07-08T06:38:48.029Z,74.40
2018-07-08T06:41:16.025Z,75.20
2018-07-08T06:43:43.987Z,75.10
2018-07-08T06:46:11.924Z,74.30
2018-07-08T06:48:39.957Z,74.00
2018-07-08T06:51:07.886Z,73.50
2018-07-08T06:53:35.883Z,73.60
2018-07-08T06:58:31.746Z,72.90
2018-07-08T07:00:59.719Z,72.20
2018-07-08T07:03:27.666Z,72.20
2018-07-08T07:05:55.615Z,72.60
2018-07-08T07:10:51.577Z,73.40
2018-07-08T07:13:19.569Z,72.10
2018-07-08T07:15:47.521Z,71.20
2018-07-08T07:18:15.468Z,70.50
2018-07-08T07:20:43.412Z,70.60
2018-07-08T07:25:39.270Z,69.50
2018-07-08T07:28:07.189Z,69.50
2018-07-08T07:30:35.207Z,69.80
2018-07-08T07:33:03.172Z,82.80
2018-07-08T07:35:31.158Z,69.10
2018-07-08T07:37:59.107Z,67.50
2018-07-08T07:40:27.016Z,68.10
2018-07-08T07:42:54.973Z,67.10
2018-07-08T07:45:22.950Z,67.40
2018-07-08T07:47:50.906Z,67.10
2018-07-08T07:50:18.832Z,65.20
2018-07-08T07:55:14.717Z,66.10
2018-07-08T07:57:42.635Z,65.50
2018-07-08T08:05:06.422Z,64.20
2018-07-08T08:10:02.314Z,63.80
2018-07-08T08:12:30.286Z,64.80
2018-07-08T08:14:58.221Z,65.50
2018-07-08T08:19:54.085Z,65.20
2018-07-08T08:22:22.010Z,65.30
2018-07-08T08:29:45.842Z,65.50
2018-07-08T08:32:13.788Z,68.00
2018-07-08T08:37:15.176Z,69.10
2018-07-08T08:39:43.099Z,68.10
2018-07-08T08:44:39.943Z,68.60
2018-07-08T08:47:07.876Z,68.30
2018-07-08T08:49:36.213Z,68.70
2018-07-08T08:54:32.237Z,69.50
2018-07-08T09:01:56.092Z,70.20
2018-07-08T09:04:24.036Z,70.40
2018-07-08T09:06:52.037Z,70.20
2018-07-08T09:09:19.968Z,69.80
2018-07-08T09:11:47.930Z,70.00
2018-07-08T09:14:15.884Z,71.00
2018-07-08T09:19:12.034Z,71.50
2018-07-08T09:26:35.955Z,72.90
2018-07-08T09:29:03.917Z,72.00
2018-07-08T09:31:31.873Z,72.20
2018-07-08T09:36:27.755Z,71.80
2018-07-08T09:38:55.851Z,83.70
2018-07-08T09:41:23.684Z,71.20
2018-07-08T09:46:19.516Z,71.40
2018-07-08T09:48:47.449Z,71.30
2018-07-08T09:51:15.405Z,70.60
2018-07-08T09:58:39.290Z,71.60
2018-07-08T10:01:07.231Z,72.30
2018-07-08T10:03:35.198Z,72.40
2018-07-08T10:06:04.421Z,72.60
2018-07-08T10:08:33.028Z,72.80
2018-07-08T10:13:29.330Z,72.60
2018-07-08T10:15:57.313Z,71.80
2018-07-08T10:18:25.245Z,82.10
2018-07-08T10:20:53.216Z,71.80
2018-07-08T10:23:21.143Z,72.40
2018-07-08T10:28:23.821Z,71.90
2018-07-08T10:33:20.162Z,70.90
2018-07-08T10:36:05.999Z,70.00
2018-07-08T10:38:33.970Z,79.20
2018-07-08T10:41:01.889Z,70.80
2018-07-08T10:45:57.730Z,70.80
2018-07-08T10:50:53.600Z,69.30
2018-07-08T10:53:21.547Z,70.00
2018-07-08T10:55:49.486Z,69.70
2018-07-08T10:58:17.476Z,69.10
2018-07-08T11:03:13.442Z,68.70
2018-07-08T11:05:41.393Z,68.30
2018-07-08T11:08:09.301Z,68.50
2018-07-08T11:10:37.273Z,67.90
2018-07-08T11:13:05.278Z,68.30
2018-07-08T11:15:33.233Z,67.60
2018-07-08T11:18:01.160Z,67.20
2018-07-08T11:20:29.125Z,66.10
2018-07-08T11:25:24.968Z,66.60
2018-07-08T11:27:52.924Z,76.30
2018-07-08T11:30:20.865Z,65.40
2018-07-08T11:35:16.780Z,64.00
2018-07-08T11:37:44.725Z,63.00
2018-07-08T11:40:12.707Z,61.20
2018-07-08T11:42:40.617Z,61.10
2018-07-08T11:45:08.546Z,57.40
2018-07-08T11:50:04.514Z,60.60
2018-07-08T11:52:32.466Z,61.10
2018-07-08T11:57:28.320Z,59.20
2018-07-08T11:59:56.272Z,58.40
2018-07-08T12:04:52.139Z,57.60
2018-07-08T12:07:20.059Z,57.80
2018-07-08T12:12:15.957Z,57.70
2018-07-08T12:14:43.896Z,68.00
2018-07-08T12:17:11.911Z,56.90
2018-07-08T12:19:39.855Z,56.50
2018-07-08T12:22:07.807Z,65.00
2018-07-08T12:24:35.781Z,67.00
2018-07-08T12:27:03.766Z,56.30
2018-07-08T12:29:32.600Z,56.00
2018-07-08T12:32:00.565Z,54.10
2018-07-08T12:36:56.451Z,56.40
2018-07-08T12:39:24.362Z,57.10
2018-07-08T12:46:48.219Z,56.90
2018-07-08T12:51:44.154Z,52.90
2018-07-08T12:54:12.141Z,59.70
2018-07-08T12:56:40.082Z,59.70
2018-07-08T12:59:08.011Z,49.10
2018-07-08T13:04:03.993Z,47.70
2018-07-08T13:06:31.975Z,48.90
2018-07-08T13:08:59.903Z,46.80
2018-07-08T13:11:27.835Z,47.30
2018-07-08T13:16:23.685Z,47.60
2018-07-08T13:26:15.506Z,49.80
2018-07-08T13:28:43.433Z,50.20
2018-07-08T13:31:11.380Z,49.20
2018-07-08T13:36:07.299Z,47.80
2018-07-08T13:38:35.229Z,46.80
2018-07-08T13:41:03.167Z,46.10
2018-07-08T13:43:31.145Z,46.10
2018-07-08T13:45:59.069Z,45.80
2018-07-08T13:48:27.041Z,46.20
2018-07-08T13:50:54.981Z,55.50
2018-07-08T13:53:22.966Z,45.80
2018-07-08T13:58:18.942Z,47.00
2018-07-08T14:00:46.943Z,46.70
2018-07-08T14:03:14.889Z,43.50
2018-07-08T14:05:42.861Z,41.60
2018-07-08T14:08:10.789Z,41.90
2018-07-08T14:10:39.373Z,41.50
2018-07-08T14:15:35.746Z,41.30
2018-07-08T14:18:03.743Z,51.20
2018-07-08T14:20:31.764Z,43.20
2018-07-08T14:22:59.640Z,44.00
2018-07-08T14:27:55.572Z,47.10
2018-07-08T14:32:51.571Z,45.60
2018-07-08T14:40:15.465Z,47.10
2018-07-08T14:42:43.402Z,48.30
2018-07-08T14:45:11.370Z,47.40
2018-07-08T14:47:39.287Z,48.30
2018-07-08T14:50:07.244Z,44.90
2018-07-08T14:52:35.243Z,53.20
2018-07-08T14:57:31.169Z,44.80
2018-07-08T14:59:59.528Z,57.00
2018-07-08T15:02:27.484Z,56.80
2018-07-08T15:04:55.434Z,56.70
2018-07-08T15:07:23.420Z,57.20
2018-07-08T15:09:51.439Z,47.60
2018-07-08T15:12:19.303Z,47.20
2018-07-08T15:19:43.106Z,47.00
2018-07-08T15:24:39.006Z,50.50
2018-07-08T15:27:07.003Z,60.70
2018-07-08T15:32:02.908Z,50.90
2018-07-08T15:34:30.880Z,49.10
2018-07-08T15:36:58.789Z,57.40
2018-07-08T15:39:26.749Z,47.80
2018-07-08T15:44:22.582Z,48.90
2018-07-08T15:49:18.447Z,49.20
2018-07-08T15:51:46.422Z,47.90
2018-07-08T15:54:14.383Z,48.20
2018-07-08T15:56:42.291Z,47.80
2018-07-08T15:59:10.270Z,48.80
2018-07-08T16:04:06.145Z,52.50
2018-07-08T16:06:34.120Z,52.20
2018-07-08T16:09:02.128Z,52.00
2018-07-08T16:11:30.064Z,52.20
2018-07-08T16:13:58.590Z,51.90
2018-07-08T16:16:26.677Z,52.30
2018-07-08T16:18:54.681Z,52.80
2018-07-08T16:21:22.545Z,51.70
2018-07-08T16:23:50.575Z,51.10
2018-07-08T16:28:46.447Z,51.20
2018-07-08T16:31:14.482Z,51.40
2018-07-08T16:36:10.398Z,49.90
2018-07-08T16:38:38.370Z,59.80
2018-07-08T16:41:06.327Z,48.30
2018-07-08T16:43:34.298Z,46.60
2018-07-08T16:46:02.242Z,43.90
2018-07-08T16:48:30.176Z,54.20
2018-07-08T16:50:58.189Z,44.80
2018-07-08T16:53:26.153Z,43.50
2018-07-08T16:55:54.129Z,54.20
2018-07-08T16:58:22.055Z,44.00
2018-07-08T17:00:49.999Z,42.80
2018-07-08T17:03:18.067Z,43.90
2018-07-08T17:08:13.955Z,43.30
2018-07-08T17:10:41.877Z,44.60
2018-07-08T17:15:37.749Z,43.20
2018-07-08T17:18:05.738Z,44.10
2018-07-08T17:20:33.724Z,44.90
2018-07-08T17:23:01.658Z,43.80
2018-07-08T17:25:29.592Z,43.70
2018-07-08T17:27:57.717Z,44.00
2018-07-08T17:30:25.772Z,43.00
2018-07-08T17:32:53.718Z,53.60
2018-07-08T17:35:21.689Z,44.60
2018-07-08T17:37:49.709Z,43.60
2018-07-08T17:40:17.684Z,43.50
2018-07-08T17:45:13.552Z,44.00
2018-07-08T17:47:41.518Z,44.00
2018-07-08T17:52:37.346Z,45.30
2018-07-08T17:55:05.439Z,46.90
2018-07-08T17:57:33.484Z,47.60
2018-07-08T18:00:01.513Z,46.70
2018-07-08T18:02:29.469Z,45.80
2018-07-08T18:04:57.588Z,44.10
2018-07-08T18:07:25.544Z,53.50
2018-07-08T18:12:21.452Z,44.90
2018-07-08T18:14:49.420Z,56.50
2018-07-08T18:17:17.539Z,56.80
2018-07-08T18:19:45.464Z,45.70
2018-07-08T18:22:13.430Z,45.30
2018-07-08T18:24:41.348Z,45.00
2018-07-08T18:27:09.283Z,45.20
2018-07-08T18:29:37.236Z,44.80
2018-07-08T18:32:05.243Z,45.10
2018-07-08T18:34:33.219Z,44.90
2018-07-08T18:37:01.174Z,45.10
2018-07-08T18:41:57.396Z,45.10
2018-07-08T18:46:53.344Z,46.10
2018-07-08T18:51:49.198Z,47.20
2018-07-08T18:54:17.140Z,47.50
2018-07-08T18:59:13.045Z,49.10
2018-07-08T19:01:40.963Z,49.20
2018-07-08T19:04:08.946Z,50.00
2018-07-08T19:06:36.930Z,49.80
2018-07-08T19:09:06.256Z,50.90
2018-07-08T19:11:34.227Z,51.20
2018-07-08T19:14:04.675Z,50.90
2018-07-08T19:21:28.921Z,54.90
2018-07-08T19:23:56.896Z,51.30
2018-07-08T19:26:24.825Z,51.60
2018-07-08T19:33:48.667Z,52.40
2018-07-08T19:36:16.649Z,53.00
2018-07-08T19:38:44.621Z,52.80
2018-07-08T19:41:12.643Z,53.10
2018-07-08T19:43:40.591Z,53.50
2018-07-08T19:48:36.517Z,52.70
2018-07-08T19:51:07.094Z,53.10
2018-07-08T19:53:35.105Z,53.10
2018-07-08T19:56:03.041Z,52.70
2018-07-08T19:58:30.965Z,52.90
2018-07-08T20:03:27.013Z,54.60
2018-07-08T20:08:22.925Z,54.70
2018-07-08T20:10:51.181Z,54.80
2018-07-08T20:13:19.195Z,54.70
2018-07-08T20:15:47.191Z,66.30
2018-07-08T20:18:15.150Z,66.90
2018-07-08T20:20:43.099Z,67.00
2018-07-08T20:23:11.023Z,54.90
2018-07-08T20:25:38.985Z,55.60
2018-07-08T20:28:09.473Z,55.30
2018-07-08T20:35:34.210Z,56.60
2018-07-08T20:38:02.328Z,56.10
2018-07-08T20:42:58.233Z,56.50
2018-07-08T20:45:26.184Z,55.30
2018-07-08T20:47:54.126Z,68.10
2018-07-08T20:50:22.073Z,55.90
2018-07-08T20:58:07.008Z,55.20
2018-07-08T21:00:44.063Z,55.20
2018-07-08T21:03:16.635Z,55.10
2018-07-08T21:05:46.120Z,54.80
2018-07-08T21:08:19.449Z,54.50
2018-07-08T21:10:48.872Z,54.70
2018-07-08T21:13:18.431Z,54.20
2018-07-08T21:15:47.416Z,54.10
2018-07-08T21:18:16.391Z,54.60
2018-07-08T21:20:44.636Z,54.40
2018-07-08T21:23:16.825Z,54.60
2018-07-08T21:25:45.348Z,54.60
2018-07-08T21:28:14.376Z,55.30
2018-07-08T21:30:44.441Z,55.50
2018-07-08T21:38:11.774Z,57.70
2018-07-08T21:40:40.415Z,57.50
2018-07-08T21:43:09.258Z,57.80
2018-07-08T21:45:38.627Z,69.60
2018-07-08T21:48:07.813Z,58.00
2018-07-08T21:50:36.080Z,71.20
2018-07-08T21:53:05.662Z,57.70
2018-07-08T21:55:35.213Z,58.50
2018-07-08T21:58:03.696Z,58.40
2018-07-08T22:00:33.265Z,57.50
2018-07-08T22:03:01.622Z,57.70
2018-07-08T22:05:30.958Z,57.60
2018-07-08T22:10:34.149Z,56.90
2018-07-08T22:13:03.942Z,57.10
2018-07-08T22:15:32.695Z,70.00
2018-07-08T22:18:02.381Z,56.90
2018-07-08T22:20:31.884Z,57.20
2018-07-08T22:23:01.159Z,57.10
2018-07-08T22:25:34.946Z,57.20
2018-07-08T22:28:03.129Z,56.90
2018-07-08T22:30:31.196Z,56.30
2018-07-08T22:32:59.479Z,56.60
2018-07-08T22:35:27.540Z,69.70
2018-07-08T22:37:55.709Z,57.60
2018-07-08T22:40:23.705Z,58.80
2018-07-08T22:42:51.791Z,59.30
2018-07-08T22:47:48.033Z,58.30
2018-07-08T22:50:16.065Z,58.30
2018-07-08T22:52:44.051Z,70.10
2018-07-08T22:57:39.921Z,59.10
2018-07-08T23:01:03.301Z,59.30
2018-07-08T23:03:55.376Z,59.20
2018-07-08T23:06:23.293Z,59.20
2018-07-08T23:08:51.841Z,59.40
2018-07-08T23:11:20.477Z,59.50
2018-07-08T23:13:49.387Z,59.60
2018-07-08T23:16:17.485Z,59.90
2018-07-08T23:18:45.399Z,72.50
2018-07-08T23:21:13.371Z,61.20
2018-07-08T23:23:41.300Z,60.20
2018-07-08T23:26:09.242Z,61.70
2018-07-08T23:33:34.172Z,63.00
2018-07-08T23:36:02.924Z,63.40
2018-07-08T23:38:31.317Z,62.40
2018-07-08T23:41:00.132Z,76.80
2018-07-08T23:43:28.166Z,75.20
2018-07-08T23:45:56.122Z,62.90
2018-07-08T23:48:24.136Z,62.80
2018-07-08T23:53:20.024Z,62.70
2018-07-08T23:55:47.971Z,62.90
2018-07-08T23:58:15.943Z,63.20
